Time;durP1;ratioP1;P1;durP2;ratioP2;P2;SDS_P1;SDS_P2;PMS_P1;PMS_P2;Temp;Humidity;BMP_temperature;BMP_pressure;BME280_temperature;BME280_humidity;BME280_pressure;Samples;Min_cycle;Max_cycle;Signal;HPM_P1;HPM_P2
2022/07/26 00:00:23;;;;;;;4.30;1.80;;;23.80;56.00;;;;;;5037297;28;20472;-74
2022/07/26 00:03:09;;;;;;;7.30;1.97;;;23.70;56.20;;;;;;5033510;28;20956;-75
2022/07/26 00:05:55;;;;;;;5.50;1.80;;;23.60;57.20;;;;;;5026068;28;20476;-72
2022/07/26 00:08:42;;;;;;;3.87;2.00;;;23.50;59.40;;;;;;5030507;28;20448;-75
2022/07/26 00:11:32;;;;;;;2.40;1.60;;;23.40;60.30;;;;;;5039608;28;20783;-75
2022/07/26 00:14:18;;;;;;;8.23;2.10;;;23.10;62.00;;;;;;5031714;28;20440;-75
2022/07/26 00:17:05;;;;;;;5.27;1.80;;;23.00;62.90;;;;;;5030197;28;20440;-75
2022/07/26 00:19:51;;;;;;;3.67;1.90;;;23.00;61.90;;;;;;5034462;28;20473;-75
2022/07/26 00:22:38;;;;;;;6.53;1.40;;;22.80;63.70;;;;;;5035661;28;21076;-75
2022/07/26 00:25:25;;;;;;;5.90;2.07;;;22.80;63.90;;;;;;5033071;28;20545;-72
2022/07/26 00:28:11;;;;;;;2.30;1.67;;;22.60;64.70;;;;;;5037419;28;20440;-74
2022/07/26 00:30:57;;;;;;;11.30;2.07;;;22.50;65.00;;;;;;5033051;28;20448;-73
2022/07/26 00:33:42;;;;;;;4.60;2.17;;;22.50;65.00;;;;;;5032182;28;20513;-75
2022/07/26 00:36:28;;;;;;;6.23;2.10;;;22.30;65.70;;;;;;5031785;28;20639;-76
2022/07/26 00:39:14;;;;;;;3.60;1.80;;;22.20;66.70;;;;;;5032727;28;20969;-75
2022/07/26 00:42:01;;;;;;;3.13;1.77;;;22.10;67.00;;;;;;5035811;28;20451;-74
2022/07/26 00:44:47;;;;;;;2.70;1.83;;;22.00;68.80;;;;;;5034144;28;20463;-75
2022/07/26 00:47:33;;;;;;;7.30;2.17;;;22.00;69.00;;;;;;5032683;28;20459;-75
2022/07/26 00:50:19;;;;;;;2.97;1.80;;;21.90;68.90;;;;;;5032924;28;20963;-74
2022/07/26 00:53:05;;;;;;;4.10;2.30;;;21.80;68.70;;;;;;5033771;28;20956;-75
2022/07/26 00:55:51;;;;;;;4.57;1.80;;;21.70;69.50;;;;;;5027179;28;21008;-75
2022/07/26 00:58:38;;;;;;;3.80;1.77;;;21.60;70.30;;;;;;5034204;28;20455;-74
2022/07/26 01:01:24;;;;;;;4.00;2.17;;;21.50;70.10;;;;;;5036201;28;20504;-75
2022/07/26 01:04:09;;;;;;;3.90;2.27;;;21.50;71.00;;;;;;5033625;28;20748;-75
2022/07/26 01:06:55;;;;;;;3.20;1.93;;;21.50;71.00;;;;;;5025658;28;20544;-73
2022/07/26 01:09:41;;;;;;;3.33;2.10;;;21.30;71.80;;;;;;5036195;28;20440;-75
2022/07/26 01:12:27;;;;;;;3.90;1.87;;;21.20;72.30;;;;;;5036862;28;20499;-75
2022/07/26 01:15:15;;;;;;;6.33;1.97;;;21.20;72.70;;;;;;5028592;28;20479;-72
2022/07/26 01:18:01;;;;;;;3.30;2.20;;;21.10;72.80;;;;;;5033213;28;20646;-74
2022/07/26 01:20:48;;;;;;;4.20;1.83;;;21.10;73.20;;;;;;5031974;28;20467;-75
2022/07/26 01:23:36;;;;;;;3.90;2.10;;;21.10;74.00;;;;;;5037967;28;20447;-75
2022/07/26 01:26:22;;;;;;;7.70;2.57;;;21.20;73.90;;;;;;5033472;28;20475;-74
2022/07/26 01:29:07;;;;;;;3.27;2.00;;;21.20;73.40;;;;;;5029430;28;20461;-75
2022/07/26 01:31:53;;;;;;;5.60;2.17;;;21.20;73.40;;;;;;5030837;28;20444;-75
2022/07/26 01:34:39;;;;;;;4.13;2.17;;;21.10;74.00;;;;;;5027356;28;20447;-75
2022/07/26 01:37:25;;;;;;;7.27;1.97;;;20.90;74.60;;;;;;5032296;28;20443;-75
2022/07/26 01:40:13;;;;;;;3.70;2.20;;;21.10;74.60;;;;;;5028785;28;20491;-73
2022/07/26 01:42:59;;;;;;;5.90;2.10;;;20.90;75.30;;;;;;5032048;28;20450;-75
2022/07/26 01:45:45;;;;;;;2.77;1.87;;;20.80;75.80;;;;;;5026310;28;20469;-73
2022/07/26 01:48:31;;;;;;;4.10;2.47;;;20.70;76.50;;;;;;5037610;28;20956;-73
2022/07/26 01:51:16;;;;;;;5.87;2.20;;;20.70;76.80;;;;;;5034650;28;20458;-75
2022/07/26 01:54:02;;;;;;;5.03;2.07;;;20.80;76.80;;;;;;5031613;28;20977;-75
2022/07/26 01:56:49;;;;;;;4.63;2.33;;;20.80;76.50;;;;;;5026554;28;20459;-75
2022/07/26 01:59:35;;;;;;;4.73;1.93;;;20.60;77.20;;;;;;5033229;28;20518;-73
2022/07/26 02:02:21;;;;;;;4.93;1.57;;;20.50;78.00;;;;;;5035053;28;20587;-75
2022/07/26 02:05:06;;;;;;;6.73;2.80;;;20.40;78.90;;;;;;5026168;28;20859;-75
2022/07/26 02:07:52;;;;;;;2.70;1.90;;;20.40;79.30;;;;;;5032645;28;20444;-75
2022/07/26 02:13:44;;;;;;;3.43;1.80;;;20.30;79.90;;;;;;5032791;28;20438;-75
2022/07/26 02:16:29;;;;;;;2.90;2.10;;;20.40;79.50;;;;;;5027447;28;20475;-72
2022/07/26 02:19:15;;;;;;;4.90;2.37;;;20.50;79.70;;;;;;5030213;28;20455;-75
2022/07/26 02:22:00;;;;;;;4.93;2.20;;;20.50;79.30;;;;;;5034276;28;20440;-75
2022/07/26 02:24:46;;;;;;;7.00;2.10;;;20.30;80.00;;;;;;5026857;28;20541;-75
2022/07/26 02:27:32;;;;;;;3.40;2.03;;;20.20;80.40;;;;;;5034302;28;20953;-74
2022/07/26 02:30:19;;;;;;;10.53;1.83;;;20.20;81.20;;;;;;5030945;28;20468;-73
2022/07/26 02:33:05;;;;;;;4.03;1.93;;;20.20;82.30;;;;;;5029399;28;20523;-75
2022/07/26 02:35:51;;;;;;;4.70;1.93;;;20.20;82.60;;;;;;5029127;28;20544;-75
2022/07/26 02:38:36;;;;;;;5.13;2.50;;;20.30;83.10;;;;;;5031732;28;20448;-73
2022/07/26 02:41:22;;;;;;;4.10;2.67;;;20.40;82.70;;;;;;5030814;28;20476;-75
2022/07/26 02:44:08;;;;;;;4.23;2.77;;;20.40;82.30;;;;;;5029329;28;20482;-75
2022/07/26 02:46:55;;;;;;;2.63;1.87;;;20.50;82.30;;;;;;5031546;28;20448;-73
2022/07/26 02:49:41;;;;;;;5.43;2.40;;;20.60;82.10;;;;;;5035775;28;20451;-75
2022/07/26 02:52:27;;;;;;;4.40;2.77;;;20.60;82.00;;;;;;5038790;28;21063;-75
2022/07/26 02:55:12;;;;;;;6.13;2.40;;;20.50;82.00;;;;;;5029954;28;20467;-75
2022/07/26 02:57:58;;;;;;;6.50;2.43;;;20.40;82.10;;;;;;5036116;28;20956;-75
2022/07/26 03:00:44;;;;;;;9.30;2.00;;;20.40;82.00;;;;;;5031915;28;20494;-75
2022/07/26 03:03:31;;;;;;;13.40;2.80;;;20.20;82.90;;;;;;5039552;28;20531;-72
2022/07/26 03:06:17;;;;;;;3.83;2.03;;;20.00;83.60;;;;;;5029370;28;20470;-75
2022/07/26 03:09:03;;;;;;;2.70;2.00;;;20.00;83.90;;;;;;5037092;28;20443;-75
2022/07/26 03:11:49;;;;;;;2.93;2.00;;;20.10;84.80;;;;;;5031814;28;20596;-75
2022/07/26 03:14:34;;;;;;;3.77;2.40;;;20.20;84.60;;;;;;5029568;28;20511;-75
2022/07/26 03:17:20;;;;;;;4.87;2.37;;;20.20;84.40;;;;;;5034323;28;20458;-74
2022/07/26 03:20:09;;;;;;;4.40;2.60;;;20.00;84.20;;;;;;5038368;28;20483;-75
2022/07/26 03:22:54;;;;;;;6.93;2.30;;;19.70;85.80;;;;;;5031499;28;20444;-72
2022/07/26 03:25:40;;;;;;;16.77;2.57;;;19.80;86.60;;;;;;5028607;28;20467;-74
2022/07/26 03:28:26;;;;;;;4.77;2.70;;;19.50;88.30;;;;;;5034763;28;20571;-75
2022/07/26 03:31:12;;;;;;;6.03;2.87;;;19.40;90.00;;;;;;5034256;28;20447;-74
2022/07/26 03:33:58;;;;;;;4.70;1.93;;;19.40;90.40;;;;;;5025662;28;20475;-75
2022/07/26 03:36:45;;;;;;;8.37;1.90;;;19.60;90.30;;;;;;5034437;28;20463;-74
2022/07/26 03:39:30;;;;;;;5.17;2.03;;;19.70;89.60;;;;;;5028085;28;20442;-73
2022/07/26 03:42:17;;;;;;;14.17;2.03;;;19.60;90.00;;;;;;5036497;28;20452;-74
2022/07/26 03:45:03;;;;;;;3.80;2.20;;;19.50;90.20;;;;;;5027608;28;20847;-75
2022/07/26 03:47:49;;;;;;;5.20;2.30;;;19.70;90.50;;;;;;5030177;28;20461;-75
2022/07/26 03:50:35;;;;;;;7.90;2.57;;;19.70;90.20;;;;;;5033838;28;20941;-74
2022/07/26 03:53:22;;;;;;;3.20;2.00;;;19.80;90.40;;;;;;5023380;28;20965;-73
2022/07/26 03:59:12;;;;;;;6.60;2.70;;;20.00;90.10;;;;;;5031494;28;20447;-74
2022/07/26 04:01:57;;;;;;;4.10;2.20;;;20.10;90.50;;;;;;5031943;28;20517;-74
2022/07/26 04:04:43;;;;;;;5.33;2.03;;;20.00;90.00;;;;;;5025800;28;20456;-74
2022/07/26 04:07:29;;;;;;;3.37;1.90;;;19.80;90.20;;;;;;5035874;28;20443;-75
2022/07/26 04:10:17;;;;;;;3.07;1.83;;;19.90;90.40;;;;;;5032341;28;20443;-75
2022/07/26 04:13:02;;;;;;;3.47;1.90;;;19.90;90.40;;;;;;5021718;28;20444;-74
2022/07/26 04:15:48;;;;;;;3.73;2.57;;;19.60;91.10;;;;;;5035983;28;20526;-75
2022/07/26 04:18:34;;;;;;;5.10;2.57;;;19.60;91.90;;;;;;5033684;28;20957;-75
2022/07/26 04:21:20;;;;;;;3.90;1.97;;;19.70;92.00;;;;;;5031791;28;20578;-75
2022/07/26 04:24:06;;;;;;;3.90;2.03;;;20.00;91.90;;;;;;5025581;28;20480;-75
2022/07/26 04:26:53;;;;;;;6.20;1.90;;;20.10;91.40;;;;;;5035789;28;20468;-74
2022/07/26 04:29:39;;;;;;;6.77;2.43;;;20.00;91.40;;;;;;5033847;28;20463;-75
2022/07/26 04:32:25;;;;;;;3.87;2.30;;;20.00;91.40;;;;;;5031206;28;20440;-74
2022/07/26 04:35:11;;;;;;;5.37;2.17;;;19.90;91.50;;;;;;5031483;28;20476;-73
2022/07/26 04:37:56;;;;;;;4.93;2.30;;;19.90;91.60;;;;;;5033302;28;20443;-74
2022/07/26 04:40:42;;;;;;;6.73;2.40;;;19.80;92.00;;;;;;5034328;28;20457;-74
2022/07/26 04:43:29;;;;;;;3.87;2.53;;;19.70;92.50;;;;;;5029884;28;20436;-74
2022/07/26 04:46:15;;;;;;;5.87;2.23;;;19.80;92.90;;;;;;5034208;28;20591;-75
2022/07/26 04:49:00;;;;;;;7.30;2.67;;;19.90;93.20;;;;;;5027273;28;20511;-72
2022/07/26 04:51:46;;;;;;;3.27;2.27;;;20.00;93.20;;;;;;5033312;28;21060;-75
2022/07/26 04:54:31;;;;;;;3.40;2.10;;;20.10;92.70;;;;;;5030810;28;20442;-75
2022/07/26 04:57:17;;;;;;;4.13;2.40;;;20.10;92.40;;;;;;5033728;28;20833;-75
2022/07/26 05:00:06;;;;;;;3.90;2.77;;;20.20;92.50;;;;;;5030243;28;20452;-73
2022/07/26 05:02:54;;;;;;;3.20;2.00;;;20.30;92.90;;;;;;5025055;28;20487;-75
2022/07/26 05:05:40;;;;;;;7.53;2.47;;;20.40;93.50;;;;;;5021883;28;20881;-73
2022/07/26 05:08:25;;;;;;;6.70;2.73;;;20.50;93.70;;;;;;5035889;28;20511;-75
2022/07/26 05:11:11;;;;;;;4.37;2.50;;;20.50;93.60;;;;;;5032981;28;20448;-74
2022/07/26 05:13:57;;;;;;;5.53;2.10;;;20.50;92.10;;;;;;5020720;28;20419;-74
2022/07/26 05:16:44;;;;;;;6.63;2.57;;;20.60;93.10;;;;;;5032605;28;20546;-73
2022/07/26 05:19:29;;;;;;;5.90;2.33;;;20.60;93.00;;;;;;5033369;28;20440;-73
2022/07/26 05:22:15;;;;;;;3.90;2.30;;;20.60;92.90;;;;;;5026549;28;21003;-74
2022/07/26 05:25:01;;;;;;;6.23;2.10;;;20.50;92.70;;;;;;5030210;28;20523;-73
2022/07/26 05:27:47;;;;;;;8.60;2.10;;;20.50;87.00;;;;;;5022662;28;20463;-75
2022/07/26 05:30:33;;;;;;;4.13;2.10;;;20.60;85.90;;;;;;5028796;28;20491;-73
2022/07/26 05:33:20;;;;;;;6.30;2.27;;;20.60;86.70;;;;;;5027419;28;20447;-72
2022/07/26 05:36:06;;;;;;;9.40;1.93;;;20.60;86.00;;;;;;5024459;28;20565;-74
2022/07/26 05:38:51;;;;;;;3.17;1.70;;;20.70;81.30;;;;;;5030397;28;20498;-73
2022/07/26 05:41:37;;;;;;;4.63;1.93;;;20.80;80.90;;;;;;5024315;28;20859;-74
2022/07/26 05:44:23;;;;;;;6.63;1.90;;;20.80;82.60;;;;;;5025195;28;20464;-74
2022/07/26 05:47:09;;;;;;;8.73;2.73;;;20.90;79.10;;;;;;5029598;28;20444;-74
2022/07/26 05:49:56;;;;;;;16.63;2.70;;;20.90;76.90;;;;;;5031201;28;20440;-72
2022/07/26 05:52:42;;;;;;;4.30;2.03;;;20.90;79.80;;;;;;5028329;28;20964;-74
2022/07/26 05:55:27;;;;;;;5.60;2.53;;;20.80;75.70;;;;;;5030494;28;20464;-73
2022/07/26 05:58:13;;;;;;;3.63;1.90;;;20.80;76.90;;;;;;5027172;28;20491;-75
2022/07/26 06:00:59;;;;;;;3.57;1.80;;;20.90;75.30;;;;;;5037140;28;21128;-73
2022/07/26 06:03:44;;;;;;;4.00;1.90;;;21.00;75.40;;;;;;5024286;28;20440;-75
2022/07/26 06:06:32;;;;;;;4.67;1.43;;;21.00;71.10;;;;;;5040828;28;20467;-74
2022/07/26 06:09:17;;;;;;;5.07;1.60;;;20.90;72.10;;;;;;5031999;28;20444;-75
2022/07/26 06:12:03;;;;;;;4.63;1.20;;;20.90;71.50;;;;;;5022541;28;20452;-74
2022/07/26 06:14:50;;;;;;;5.23;1.90;;;20.90;72.20;;;;;;5031891;28;20840;-74
2022/07/26 06:17:40;;;;;;;6.47;1.80;;;20.90;71.80;;;;;;5019863;28;20445;-74
2022/07/26 06:20:26;;;;;;;7.13;1.60;;;20.90;71.40;;;;;;5037313;28;20427;-74
2022/07/26 06:23:14;;;;;;;3.93;1.80;;;20.80;70.40;;;;;;5032761;28;20499;-74
2022/07/26 06:25:59;;;;;;;4.93;1.80;;;20.70;71.50;;;;;;5037349;28;20467;-74
2022/07/26 06:28:45;;;;;;;4.27;1.77;;;20.70;71.70;;;;;;5049195;28;20515;-74
2022/07/26 06:31:30;;;;;;;4.43;1.77;;;20.70;71.00;;;;;;5030938;28;20411;-74
2022/07/26 06:34:16;;;;;;;4.30;1.53;;;20.60;71.00;;;;;;5038382;28;20421;-74
2022/07/26 06:37:02;;;;;;;3.57;1.93;;;20.60;71.40;;;;;;5042136;28;20520;-74
2022/07/26 06:39:48;;;;;;;9.03;1.80;;;20.60;73.10;;;;;;5032087;28;20472;-73
2022/07/26 06:42:34;;;;;;;5.60;1.50;;;20.70;71.00;;;;;;5031260;28;20476;-75
2022/07/26 06:45:20;;;;;;;6.90;1.90;;;20.70;73.90;;;;;;5038035;28;20682;-74
2022/07/26 06:48:06;;;;;;;2.40;1.40;;;20.90;73.40;;;;;;5032178;28;21028;-74
2022/07/26 06:50:52;;;;;;;3.80;1.70;;;21.10;72.80;;;;;;5035475;28;20452;-74
2022/07/26 06:53:38;;;;;;;4.40;1.77;;;21.30;70.80;;;;;;5022143;28;20653;-74
2022/07/26 06:56:25;;;;;;;3.03;1.53;;;21.50;70.60;;;;;;5036678;28;20541;-75
2022/07/26 06:59:11;;;;;;;6.00;1.90;;;21.70;68.40;;;;;;5037206;28;20448;-74
2022/07/26 07:01:56;;;;;;;4.37;2.17;;;21.70;67.70;;;;;;5023051;28;20710;-75
2022/07/26 07:04:42;;;;;;;5.53;1.80;;;21.80;68.00;;;;;;5032868;28;20436;-74
2022/07/26 07:07:28;;;;;;;4.30;1.87;;;21.80;66.40;;;;;;5035370;28;20450;-75
2022/07/26 07:10:13;;;;;;;6.60;2.33;;;21.70;66.30;;;;;;5030900;28;20961;-75
2022/07/26 07:13:00;;;;;;;6.13;1.93;;;21.70;65.50;;;;;;5030995;28;20826;-75
2022/07/26 07:15:46;;;;;;;5.80;1.90;;;21.70;67.30;;;;;;5037073;28;20551;-74
2022/07/26 07:18:31;;;;;;;6.93;1.83;;;21.80;68.00;;;;;;5037289;28;20487;-75
2022/07/26 07:21:17;;;;;;;10.33;2.10;;;22.00;66.50;;;;;;5029357;28;20590;-74
2022/07/26 07:24:02;;;;;;;7.17;1.83;;;22.20;65.60;;;;;;5031044;28;20595;-75
2022/07/26 07:26:48;;;;;;;4.50;1.60;;;22.40;64.30;;;;;;5037721;28;20601;-75
2022/07/26 07:29:35;;;;;;;10.80;2.10;;;22.60;57.70;;;;;;5030717;28;20611;-74
2022/07/26 07:32:21;;;;;;;4.00;1.60;;;22.40;55.90;;;;;;5029442;28;20440;-74
2022/07/26 07:35:07;;;;;;;4.20;1.60;;;22.20;57.30;;;;;;5034242;28;20529;-75
2022/07/26 07:37:52;;;;;;;3.90;1.43;;;22.00;55.40;;;;;;5035400;28;20542;-75
2022/07/26 07:40:38;;;;;;;3.30;1.40;;;22.10;58.00;;;;;;5030671;28;20873;-74
2022/07/26 07:43:24;;;;;;;3.77;1.53;;;22.30;55.80;;;;;;5034413;28;20447;-75
2022/07/26 07:46:12;;;;;;;4.53;1.60;;;22.40;57.90;;;;;;5034602;28;20460;-72
2022/07/26 07:48:58;;;;;;;2.70;1.30;;;22.70;56.20;;;;;;5036433;28;20449;-74
2022/07/26 07:51:44;;;;;;;12.00;1.53;;;22.70;51.30;;;;;;5032252;28;20443;-74
2022/07/26 07:54:30;;;;;;;4.07;1.90;;;22.40;52.00;;;;;;5035857;28;20577;-74
2022/07/26 07:57:15;;;;;;;3.57;1.50;;;22.40;53.90;;;;;;5039501;28;20451;-75
2022/07/26 08:00:01;;;;;;;3.57;1.50;;;22.40;55.90;;;;;;5029094;28;20540;-74
2022/07/26 08:02:48;;;;;;;3.40;1.50;;;22.40;52.70;;;;;;5031543;28;20471;-72
2022/07/26 08:05:34;;;;;;;5.73;1.40;;;22.50;52.30;;;;;;5030469;28;20475;-75
2022/07/26 08:08:20;;;;;;;6.90;1.53;;;22.60;49.50;;;;;;5037690;28;20949;-74
2022/07/26 08:11:06;;;;;;;2.87;1.63;;;22.40;50.50;;;;;;5028513;28;20834;-74
2022/07/26 08:13:52;;;;;;;4.40;1.70;;;22.50;52.50;;;;;;5037860;28;20981;-74
2022/07/26 08:16:37;;;;;;;5.33;1.50;;;22.60;51.30;;;;;;5036363;28;21066;-74
2022/07/26 08:19:25;;;;;;;4.47;1.50;;;22.60;49.20;;;;;;5033347;28;21266;-74
2022/07/26 08:22:10;;;;;;;5.00;1.30;;;22.60;49.30;;;;;;5028771;28;20464;-74
2022/07/26 08:24:56;;;;;;;5.63;1.13;;;22.50;50.40;;;;;;5039314;28;20478;-73
2022/07/26 08:27:42;;;;;;;3.70;1.33;;;22.60;50.00;;;;;;5035171;28;20471;-74
2022/07/26 08:30:27;;;;;;;3.00;1.20;;;22.70;49.00;;;;;;5026743;28;20442;-74
2022/07/26 08:33:13;;;;;;;5.00;1.57;;;22.70;50.10;;;;;;5037890;28;20443;-73
2022/07/26 08:36:00;;;;;;;2.97;1.30;;;22.70;51.00;;;;;;5029390;28;20468;-74
2022/07/26 08:38:45;;;;;;;4.33;1.30;;;22.80;48.90;;;;;;5036963;28;20443;-74
2022/07/26 08:41:31;;;;;;;10.03;1.40;;;22.90;50.90;;;;;;5033479;28;20559;-74
2022/07/26 08:44:18;;;;;;;6.90;1.93;;;23.10;52.10;;;;;;5032311;28;20603;-73
2022/07/26 08:47:03;;;;;;;2.90;1.60;;;23.30;50.30;;;;;;5031696;28;20476;-74
2022/07/26 08:49:49;;;;;;;4.63;1.90;;;23.10;46.70;;;;;;5029667;28;20448;-74
2022/07/26 08:52:39;;;;;;;3.10;1.33;;;23.00;47.60;;;;;;5031696;28;20443;-74
2022/07/26 08:55:25;;;;;;;6.10;1.50;;;23.10;49.00;;;;;;5041383;28;20467;-75
2022/07/26 08:58:10;;;;;;;2.03;1.10;;;23.20;48.00;;;;;;5029222;28;20568;-74
2022/07/26 09:01:07;;;;;;;3.20;1.17;;;23.20;46.10;;;;;;5024589;28;20444;-73
2022/07/26 09:03:53;;;;;;;3.83;1.37;;;23.20;46.30;;;;;;5029372;28;20448;-74
2022/07/26 09:06:38;;;;;;;3.57;1.17;;;23.40;48.70;;;;;;5035474;28;20444;-74
2022/07/26 09:09:26;;;;;;;4.33;1.17;;;23.70;47.10;;;;;;5029754;28;20495;-75
2022/07/26 09:12:17;;;;;;;3.30;1.13;;;23.90;47.40;;;;;;5029600;28;20440;-73
2022/07/26 09:15:05;;;;;;;3.00;1.37;;;24.00;45.60;;;;;;5037652;28;20601;-74
2022/07/26 09:17:55;;;;;;;4.03;1.60;;;24.00;44.50;;;;;;5036504;28;20567;-74
2022/07/26 09:20:47;;;;;;;5.03;1.40;;;24.00;43.80;;;;;;5023699;28;20444;-74
2022/07/26 09:23:40;;;;;;;8.60;1.30;;;23.60;43.50;;;;;;5028346;28;20468;-77
2022/07/26 09:26:28;;;;;;;7.77;1.27;;;23.40;45.60;;;;;;5032810;28;20456;-76
2022/07/26 09:29:13;;;;;;;4.30;1.10;;;23.30;46.10;;;;;;5024377;28;20579;-77
2022/07/26 09:32:15;;;;;;;5.00;1.20;;;23.30;48.70;;;;;;5039184;28;20424;-77
2022/07/26 09:35:12;;;;;;;4.00;1.10;;;23.20;47.20;;;;;;5023020;28;20555;-76
2022/07/26 09:37:57;;;;;;;5.80;1.20;;;23.20;46.50;;;;;;5024431;28;20443;-77
2022/07/26 09:40:43;;;;;;;2.17;1.03;;;22.90;45.30;;;;;;5026341;28;20819;-76
2022/07/26 09:43:38;;;;;;;4.20;1.10;;;22.80;46.00;;;;;;5026627;28;20471;-76
2022/07/26 09:46:24;;;;;;;3.47;1.03;;;22.70;46.00;;;;;;5028776;28;20472;-76
2022/07/26 09:49:17;;;;;;;6.10;1.10;;;22.80;47.70;;;;;;5033694;28;20441;-76
2022/07/26 09:52:13;;;;;;;5.17;1.23;;;22.90;49.00;;;;;;5031543;28;20889;-76
2022/07/26 09:55:05;;;;;;;4.37;1.23;;;23.00;48.10;;;;;;5038355;28;20468;-76
2022/07/26 09:57:51;;;;;;;7.10;1.50;;;23.20;46.30;;;;;;5033311;28;20495;-76
2022/07/26 10:00:38;;;;;;;3.63;1.40;;;23.20;45.40;;;;;;5020090;28;20452;-76
2022/07/26 10:03:24;;;;;;;4.50;1.30;;;23.40;45.40;;;;;;5037444;28;20482;-76
2022/07/26 10:06:09;;;;;;;5.43;1.50;;;23.40;45.00;;;;;;5022237;28;20453;-76
2022/07/26 10:08:56;;;;;;;9.83;1.50;;;23.70;47.20;;;;;;5032294;28;20456;-74
2022/07/26 10:11:45;;;;;;;5.53;1.40;;;23.90;43.70;;;;;;5028806;28;20425;-77
2022/07/26 10:14:39;;;;;;;2.40;1.00;;;24.00;45.40;;;;;;5033301;28;20446;-76
2022/07/26 10:17:47;;;;;;;4.43;1.30;;;24.30;46.10;;;;;;5033453;28;20443;-75
2022/07/26 10:20:46;;;;;;;4.20;1.47;;;24.40;42.50;;;;;;5026626;28;20448;-76
2022/07/26 10:23:40;;;;;;;2.00;1.00;;;24.50;42.50;;;;;;5031825;28;20488;-73
2022/07/26 10:26:44;;;;;;;5.73;1.10;;;24.50;40.40;;;;;;5030693;28;21039;-73
2022/07/26 10:29:30;;;;;;;2.27;1.20;;;24.20;39.70;;;;;;5026502;28;20443;-73
2022/07/26 10:32:18;;;;;;;5.40;1.20;;;24.00;41.60;;;;;;5031017;28;20522;-74
2022/07/26 10:35:29;;;;;;;3.43;1.50;;;24.00;42.00;;;;;;5022568;28;20457;-74
2022/07/26 10:38:23;;;;;;;2.47;1.33;;;24.00;42.00;;;;;;5033936;28;20421;-72
2022/07/26 10:41:09;;;;;;;2.57;1.50;;;23.90;43.50;;;;;;5027931;28;20433;-74
2022/07/26 10:44:13;;;;;;;3.83;1.30;;;23.90;42.90;;;;;;5032804;28;20476;-74
2022/07/26 10:47:14;;;;;;;4.60;1.20;;;23.90;43.70;;;;;;5036465;28;20956;-74
2022/07/26 10:50:00;;;;;;;6.20;1.17;;;24.00;43.20;;;;;;5022579;28;20448;-75
2022/07/26 10:52:58;;;;;;;3.50;1.23;;;24.00;42.60;;;;;;5034989;28;20506;-74
2022/07/26 10:55:49;;;;;;;2.43;1.00;;;24.00;42.70;;;;;;5035582;28;20663;-75
2022/07/26 10:58:43;;;;;;;4.30;1.00;;;24.00;43.00;;;;;;5032339;28;20440;-74
2022/07/26 11:01:33;;;;;;;5.60;1.27;;;24.00;42.90;;;;;;5033396;28;20575;-74
2022/07/26 11:04:20;;;;;;;3.40;0.97;;;24.10;41.00;;;;;;5030267;28;20942;-74
2022/07/26 11:07:06;;;;;;;2.30;0.93;;;24.50;42.80;;;;;;5023621;28;20432;-75
2022/07/26 11:09:56;;;;;;;4.77;1.40;;;24.80;40.50;;;;;;5031146;28;20457;-74
2022/07/26 11:12:42;;;;;;;1.90;0.80;;;25.00;39.90;;;;;;5036259;28;20448;-74
2022/07/26 11:15:27;;;;;;;6.20;1.23;;;25.40;40.60;;;;;;5038415;28;20659;-74
2022/07/26 11:18:23;;;;;;;3.90;1.57;;;25.60;35.80;;;;;;5032711;28;20542;-73
2022/07/26 11:21:10;;;;;;;2.00;1.10;;;25.60;35.80;;;;;;5037247;28;20420;-74
2022/07/26 11:24:02;;;;;;;12.70;1.17;;;25.70;36.00;;;;;;5037968;28;20472;-75
2022/07/26 11:26:50;;;;;;;3.33;1.30;;;25.70;36.40;;;;;;5036033;28;20483;-75
2022/07/26 11:29:37;;;;;;;2.13;1.00;;;25.60;35.60;;;;;;5021433;28;20531;-73
2022/07/26 11:32:25;;;;;;;3.77;1.07;;;25.50;35.00;;;;;;5038249;28;20792;-75
2022/07/26 11:35:10;;;;;;;3.00;0.90;;;25.50;35.00;;;;;;5027850;28;20441;-74
2022/07/26 11:38:00;;;;;;;4.40;1.47;;;25.40;35.40;;;;;;5035878;28;21017;-74
2022/07/26 11:40:47;;;;;;;2.43;1.00;;;25.40;34.80;;;;;;5033001;28;20583;-74
2022/07/26 11:43:38;;;;;;;1.90;0.90;;;25.50;35.00;;;;;;5037751;28;20458;-74
2022/07/26 11:46:31;;;;;;;3.23;1.03;;;25.70;31.90;;;;;;5038678;28;20850;-74
2022/07/26 11:49:18;;;;;;;2.40;1.00;;;25.40;31.60;;;;;;5020962;28;20559;-73
2022/07/26 11:52:05;;;;;;;2.37;1.17;;;25.20;31.70;;;;;;5039720;28;20691;-74
2022/07/26 11:54:52;;;;;;;5.17;1.67;;;25.40;33.10;;;;;;5034931;28;20490;-74
2022/07/26 11:57:38;;;;;;;5.83;1.37;;;25.60;31.90;;;;;;5036749;28;20436;-74
2022/07/26 12:00:25;;;;;;;39.30;5.10;;;25.50;30.90;;;;;;5037511;28;20483;-74
2022/07/26 12:03:11;;;;;;;19.50;2.00;;;25.40;32.40;;;;;;5034692;28;20992;-74
2022/07/26 12:06:03;;;;;;;6.77;1.83;;;25.30;32.20;;;;;;5033452;28;20851;-74
2022/07/26 12:08:50;;;;;;;5.37;1.30;;;25.20;34.40;;;;;;5022749;28;20501;-74
2022/07/26 12:11:40;;;;;;;8.60;1.60;;;25.30;34.70;;;;;;5032436;28;20428;-74
2022/07/26 12:14:27;;;;;;;12.17;2.27;;;25.10;33.10;;;;;;5038309;28;20428;-74
2022/07/26 12:17:15;;;;;;;2.23;1.13;;;25.00;34.10;;;;;;5024979;28;20498;-74
2022/07/26 12:20:11;;;;;;;11.23;1.47;;;25.00;33.50;;;;;;5023958;28;20417;-74
2022/07/26 12:23:03;;;;;;;4.40;2.10;;;25.10;34.40;;;;;;5025858;28;20467;-74
2022/07/26 12:25:49;;;;;;;10.80;1.33;;;25.20;34.40;;;;;;5039712;28;20459;-74
2022/07/26 12:28:41;;;;;;;5.30;0.90;;;25.30;34.10;;;;;;5026391;28;20457;-74
2022/07/26 12:31:29;;;;;;;3.90;1.20;;;25.50;34.30;;;;;;5041523;28;20868;-75
2022/07/26 12:34:21;;;;;;;2.83;1.00;;;25.70;34.10;;;;;;5025368;28;20452;-74
2022/07/26 12:37:17;;;;;;;4.63;1.57;;;25.80;32.50;;;;;;5031532;28;20468;-74
2022/07/26 12:40:06;;;;;;;4.20;1.17;;;25.70;32.00;;;;;;5036437;28;20510;-75
2022/07/26 12:42:57;;;;;;;12.57;1.40;;;25.80;32.30;;;;;;5041138;28;20708;-74
2022/07/26 12:45:43;;;;;;;3.30;0.80;;;25.60;30.90;;;;;;5036596;28;20559;-74
2022/07/26 12:48:28;;;;;;;5.07;1.63;;;25.60;31.00;;;;;;5027989;28;20448;-74
2022/07/26 12:51:16;;;;;;;3.37;1.20;;;25.50;30.90;;;;;;5029466;28;20436;-75
2022/07/26 12:54:02;;;;;;;3.50;1.07;;;25.20;30.70;;;;;;5035334;28;20825;-75
2022/07/26 12:56:47;;;;;;;2.70;1.30;;;25.20;32.50;;;;;;5033338;28;20846;-72
2022/07/26 12:59:33;;;;;;;4.37;1.43;;;25.20;32.40;;;;;;5030339;28;20424;-74
2022/07/26 13:02:19;;;;;;;2.70;1.10;;;25.10;30.70;;;;;;5039180;28;20486;-74
2022/07/26 13:05:06;;;;;;;3.20;1.17;;;25.10;32.20;;;;;;5027265;28;20448;-73
2022/07/26 13:07:54;;;;;;;2.70;0.90;;;25.40;33.40;;;;;;5026251;28;20503;-74
2022/07/26 13:10:41;;;;;;;10.50;1.30;;;25.80;32.50;;;;;;5037267;28;20432;-74
2022/07/26 13:13:27;;;;;;;2.10;0.90;;;26.30;32.70;;;;;;5039515;28;20437;-74
2022/07/26 13:16:12;;;;;;;3.70;1.50;;;26.60;31.30;;;;;;5051476;22;20490;-75
2022/07/26 13:18:58;;;;;;;2.60;1.00;;;26.60;30.20;;;;;;5049505;28;20436;-75
2022/07/26 13:21:44;;;;;;;2.20;0.90;;;26.50;29.70;;;;;;5058119;28;20558;-74
2022/07/26 13:24:33;;;;;;;2.80;1.20;;;26.30;28.90;;;;;;5051114;28;20479;-73
2022/07/26 13:27:18;;;;;;;6.03;0.93;;;26.20;29.20;;;;;;5016655;28;20448;-74
2022/07/26 13:30:05;;;;;;;5.27;2.80;;;26.10;29.20;;;;;;5030893;28;20912;-73
2022/07/26 13:32:51;;;;;;;3.03;1.27;;;26.10;29.50;;;;;;5032432;28;20475;-73
2022/07/26 13:35:38;;;;;;;3.50;1.20;;;26.30;31.60;;;;;;5030479;28;20518;-73
2022/07/26 13:38:23;;;;;;;2.20;0.97;;;26.30;29.10;;;;;;5031660;28;20444;-73
2022/07/26 13:41:11;;;;;;;2.97;1.30;;;26.30;29.50;;;;;;5033396;28;20488;-73
2022/07/26 13:43:56;;;;;;;2.70;1.03;;;26.10;29.70;;;;;;5038414;28;20476;-73
2022/07/26 13:46:42;;;;;;;3.80;1.00;;;26.00;29.50;;;;;;5040282;28;20526;-72
2022/07/26 13:49:28;;;;;;;7.77;1.40;;;25.90;30.20;;;;;;5030136;28;20933;-73
2022/07/26 13:52:14;;;;;;;3.57;2.27;;;26.10;31.40;;;;;;5025477;28;20921;-73
2022/07/26 13:55:00;;;;;;;3.77;1.00;;;26.20;31.50;;;;;;5029623;28;21069;-73
2022/07/26 13:57:47;;;;;;;7.43;1.40;;;26.10;29.70;;;;;;5028622;28;20464;-73
2022/07/26 14:00:33;;;;;;;2.63;1.00;;;26.00;29.90;;;;;;5035199;28;20424;-73
2022/07/26 14:03:18;;;;;;;2.40;1.23;;;26.20;31.50;;;;;;5029711;28;20873;-75
2022/07/26 14:06:04;;;;;;;3.63;1.30;;;26.50;30.50;;;;;;5027384;28;20444;-74
2022/07/26 14:08:50;;;;;;;2.37;1.03;;;26.50;28.90;;;;;;5033619;28;20444;-75
2022/07/26 14:11:36;;;;;;;2.50;1.13;;;26.50;29.70;;;;;;5039136;28;20448;-74
2022/07/26 14:14:23;;;;;;;3.33;1.10;;;26.50;30.00;;;;;;5031710;28;20938;-74
2022/07/26 14:17:09;;;;;;;6.23;1.50;;;26.30;30.00;;;;;;5023131;28;20468;-75
2022/07/26 14:19:54;;;;;;;2.60;1.10;;;26.10;29.80;;;;;;5037332;28;20479;-74
2022/07/26 14:22:40;;;;;;;2.50;1.00;;;26.10;29.50;;;;;;5031208;28;20447;-75
2022/07/26 14:25:27;;;;;;;2.20;0.90;;;26.00;29.20;;;;;;5030418;28;20722;-74
2022/07/26 14:28:12;;;;;;;3.63;1.20;;;26.00;29.70;;;;;;5029003;28;20523;-73
2022/07/26 14:31:00;;;;;;;4.43;1.73;;;26.00;29.60;;;;;;5033337;28;20436;-73
2022/07/26 14:33:46;;;;;;;2.57;1.00;;;25.80;30.00;;;;;;5025468;28;21284;-73